• Join FlightAware (Why Join?)
  • Login
  • US Flag 
08:00AM EDT


 

Airport Tracker/Info


-or-


 

Live Flight TrackerFlight Track Log ✈ UAL1116 ✈ 05-Jan-2014 ✈ MMMX / MEX - KSFO

Flight Track Log - Related Links

Times and Time Zones

All times are in EST time to prevent confusion due to time zone crossing. See the UAL1116 flight status page for this flight to view local times or setup timezone preferences in your user account.

Time Position Orientation Groundspeed Altitude Reporting Facility
EST Latitude Longitude Course Direction KTS MPH feet Rate Location/Type
05:24PM 19.6080 -99.0567 351° North  Level FlightAware Approximate
05:25PM 19.7266 -99.0772 351° North  Level FlightAware Approximate
05:26PM 19.8452 -99.0977 351° North  Level FlightAware Approximate
05:27PM 19.9638 -99.1182 351° North  Level FlightAware Approximate
05:28PM 20.0858 -99.1394 351° North  Level FlightAware Approximate
05:29PM 20.2079 -99.1606 351° North  Level FlightAware Approximate
05:30PM 20.3300 -99.1819 351° North  Level FlightAware Approximate
05:31PM 20.4520 -99.2031 351° North  Level FlightAware Approximate
05:32PM 20.5741 -99.2245 351° North  Level FlightAware Approximate
05:33PM 20.6961 -99.2458 351° North  Level FlightAware Approximate
05:34PM 20.8182 -99.2672 351° North  Level FlightAware Approximate
05:35PM 20.9403 -99.2886 351° North  Level FlightAware Approximate
05:36PM 21.0623 -99.3101 351° North  Level FlightAware Approximate
05:37PM 21.1843 -99.3316 351° North  Level FlightAware Approximate
05:38PM 21.3064 -99.3531 351° North  Level FlightAware Approximate
05:39PM 21.3930 -99.4479 351° North  Level Estimated
05:40PM 21.5166 -99.4518 358° North  Level FlightAware Approximate
05:41PM 21.6402 -99.4557 358° North  Level FlightAware Approximate
05:42PM 21.7638 -99.4597 358° North  Level FlightAware Approximate
05:43PM 21.8875 -99.4636 358° North  Level FlightAware Approximate
05:44PM 21.9729 -99.5601 351° North  Level Estimated
05:45PM 22.0964 -99.5661 357° North  Level FlightAware Approximate
05:46PM 22.2199 -99.5722 357° North  Level FlightAware Approximate
05:47PM 22.3435 -99.5783 357° North  Level FlightAware Approximate
05:48PM 22.4671 -99.5844 357° North  Level FlightAware Approximate
05:49PM 22.5906 -99.5905 357° North  Level FlightAware Approximate
05:50PM 22.6744 -99.6890 351° North  Level Estimated
05:51PM 22.7981 -99.6909 359° North  Level FlightAware Approximate
05:52PM 22.9218 -99.6928 359° North  Level FlightAware Approximate
05:53PM 23.0455 -99.6947 359° North  Level FlightAware Approximate
05:54PM 23.1691 -99.6967 359° North  Level FlightAware Approximate
05:55PM 23.2516 -99.7969 351° North  Level Estimated
05:56PM 23.3747 -99.8106 354° North  Level FlightAware Approximate
05:57PM 23.4977 -99.8242 354° North  Level FlightAware Approximate
05:58PM 23.6207 -99.8380 354° North  Level FlightAware Approximate
05:59PM 23.7438 -99.8517 354° North  Level FlightAware Approximate
06:00PM 23.8668 -99.8654 354° North  Level FlightAware Approximate
06:01PM 23.9899 -99.8792 354° North  Level FlightAware Approximate
06:02PM 24.1129 -99.8930 354° North  Level FlightAware Approximate
06:03PM 24.2359 -99.9068 354° North  Level FlightAware Approximate
06:04PM 24.3590 -99.9207 354° North  Level FlightAware Approximate
06:05PM 24.4820 -99.9346 354° North  Level FlightAware Approximate
06:06PM 24.6050 -99.9485 354° North  Level FlightAware Approximate
06:07PM 24.7281 -99.9624 354° North  Level FlightAware Approximate
06:08PM 24.8511 -99.9764 354° North  Level FlightAware Approximate
06:09PM 24.9741 -99.9904 354° North  Level FlightAware Approximate
06:10PM 25.0971 -100.0044 354° North  Level FlightAware Approximate
06:11PM 25.1745 -100.1110 351° North  Level Estimated
06:12PM 25.2975 -100.0958 North  Level FlightAware Approximate
06:13PM 25.3744 -100.2030 299° West  Level Estimated
06:14PM 25.4512 -100.3103 300° West  Level Estimated
06:15PM 25.5478 -100.3959 321° Northwest  Level FlightAware Approximate
06:16PM 25.6443 -100.4816 321° Northwest  Level FlightAware Approximate
06:17PM 25.7207 -100.5895 298° West  Level Estimated
06:18PM 25.7945 -100.6998 307° West  Level FlightAware Approximate
06:19PM 25.8486 -100.7808 307° West  Level FlightAware Approximate
06:20PM 25.9027 -100.8619 307° West  Level FlightAware Approximate
06:21PM 25.9587 -100.9415 299° West  Level Estimated
06:22PM 26.0056 -101.0281 301° West  Level FlightAware Approximate
06:23PM 26.0525 -101.1146 301° West  Level FlightAware Approximate
06:24PM 26.1084 -101.1944 299° West  Level Estimated
06:25PM 26.1513 -101.2836 298° West  Level FlightAware Approximate
06:26PM 26.1940 -101.3729 298° West  Level FlightAware Approximate
06:27PM 26.2368 -101.4623 298° West  Level FlightAware Approximate
06:28PM 26.2795 -101.5517 298° West  Level FlightAware Approximate
06:29PM 26.3221 -101.6412 298° West  Level FlightAware Approximate
06:30PM 26.3647 -101.7308 298° West  Level FlightAware Approximate
06:31PM 26.4072 -101.8204 298° West  Level FlightAware Approximate
06:32PM 26.4630 -101.9004 299° West  Level Estimated
06:33PM 26.5050 -101.9904 298° West  Level FlightAware Approximate
06:34PM 26.5469 -102.0805 298° West  Level FlightAware Approximate
06:35PM 26.5888 -102.1707 297° West  Level FlightAware Approximate
06:36PM 26.6306 -102.2609 297° West  Level FlightAware Approximate
06:37PM 26.6724 -102.3512 297° West  Level FlightAware Approximate
06:38PM 26.7282 -102.4314 298° West  Level Estimated
06:39PM 26.7700 -102.5218 297° West  Level FlightAware Approximate
06:40PM 26.8117 -102.6122 297° West  Level FlightAware Approximate
06:41PM 26.8533 -102.7027 297° West  Level FlightAware Approximate
06:42PM 26.8949 -102.7932 297° West  Level FlightAware Approximate
06:43PM 26.9364 -102.8838 297° West  Level FlightAware Approximate
06:44PM 26.9779 -102.9745 297° West  Level FlightAware Approximate
06:45PM 27.0193 -103.0653 297° West  Level FlightAware Approximate
06:46PM 27.0606 -103.1561 297° West  Level FlightAware Approximate
06:47PM 27.1019 -103.2470 297° West  Level FlightAware Approximate
06:48PM 27.1432 -103.3380 297° West  Level FlightAware Approximate
06:49PM 27.1844 -103.4290 297° West  Level FlightAware Approximate
06:50PM 27.2255 -103.5201 297° West  Level FlightAware Approximate
06:51PM 27.2666 -103.6112 297° West  Level FlightAware Approximate
06:52PM 27.3076 -103.7025 297° West  Level FlightAware Approximate
06:53PM 27.3485 -103.7937 297° West  Level FlightAware Approximate
06:54PM 27.3894 -103.8851 297° West  Level FlightAware Approximate
06:55PM 27.4302 -103.9765 297° West  Level FlightAware Approximate
06:56PM 27.4861 -104.0572 299° West  Level Estimated
06:57PM 27.5252 -104.1497 296° West  Level FlightAware Approximate
06:58PM 27.5643 -104.2422 295° West  Level FlightAware Approximate
06:59PM 27.6202 -104.3230 297° West  Level Estimated
07:00PM 27.6581 -104.4162 295° West  Level FlightAware Approximate
07:01PM 27.6959 -104.5094 295° West  Level FlightAware Approximate
07:02PM 27.7337 -104.6028 295° West  Level FlightAware Approximate
07:03PM 27.7714 -104.6962 295° West  Level FlightAware Approximate
07:04PM 27.8274 -104.7770 297° West  Level Estimated
07:05PM 27.8684 -104.8688 297° West  Level FlightAware Approximate
07:06PM 27.9093 -104.9605 297° West  Level FlightAware Approximate
07:07PM 27.9501 -105.0524 297° West  Level FlightAware Approximate
07:08PM 27.9909 -105.1443 297° West  Level FlightAware Approximate
07:09PM 28.0316 -105.2363 297° West  Level FlightAware Approximate
07:10PM 28.0723 -105.3284 297° West  Level FlightAware Approximate
07:11PM 28.1129 -105.4205 297° West  Level FlightAware Approximate
07:12PM 28.1534 -105.5127 297° West  Level FlightAware Approximate
07:13PM 28.1938 -105.6050 296° West  Level FlightAware Approximate
07:14PM 28.2342 -105.6973 296° West  Level FlightAware Approximate
07:15PM 28.2746 -105.7897 296° West  Level FlightAware Approximate
07:16PM 28.3149 -105.8822 296° West  Level FlightAware Approximate
07:17PM 28.3551 -105.9748 296° West  Level FlightAware Approximate
07:18PM 28.3953 -106.0674 296° West  Level FlightAware Approximate
07:19PM 28.4353 -106.1601 296° West  Level FlightAware Approximate
07:20PM 28.4754 -106.2529 296° West  Level FlightAware Approximate
07:21PM 28.5153 -106.3457 296° West  Level FlightAware Approximate
07:22PM 28.5552 -106.4386 296° West  Level FlightAware Approximate
07:23PM 28.5951 -106.5316 296° West  Level FlightAware Approximate
07:24PM 28.6349 -106.6246 296° West  Level FlightAware Approximate
07:25PM 28.6746 -106.7177 296° West  Level FlightAware Approximate
07:26PM 28.7142 -106.8109 296° West  Level FlightAware Approximate
07:27PM 28.7538 -106.9042 296° West  Level FlightAware Approximate
07:28PM 28.7933 -106.9975 296° West  Level FlightAware Approximate
07:29PM 28.8328 -107.0909 296° West  Level FlightAware Approximate
07:30PM 28.8722 -107.1844 296° West  Level FlightAware Approximate
07:31PM 28.9115 -107.2779 296° West  Level FlightAware Approximate
07:32PM 28.9508 -107.3715 296° West  Level FlightAware Approximate
07:33PM 28.9900 -107.4652 296° West  Level FlightAware Approximate
07:34PM 29.0291 -107.5590 296° West  Level FlightAware Approximate
07:35PM 29.0682 -107.6528 295° West  Level FlightAware Approximate
07:36PM 29.1072 -107.7467 295° West  Level FlightAware Approximate
07:37PM 29.1461 -107.8407 295° West  Level FlightAware Approximate
07:38PM 29.1850 -107.9347 295° West  Level FlightAware Approximate
07:39PM 29.2238 -108.0288 295° West  Level FlightAware Approximate
07:40PM 29.2625 -108.1230 295° West  Level FlightAware Approximate
07:41PM 29.3012 -108.2172 295° West  Level FlightAware Approximate
07:42PM 29.3398 -108.3116 295° West  Level FlightAware Approximate
07:43PM 29.3969 -108.3926 295° West  Level Estimated
07:44PM 29.4333 -108.4882 294° West  Level FlightAware Approximate
07:45PM 29.4696 -108.5839 294° West  Level FlightAware Approximate
07:46PM 29.5058 -108.6796 294° West  Level FlightAware Approximate
07:47PM 29.5419 -108.7754 293° West  Level FlightAware Approximate
07:47PM 30.2762 -112.9775 293° West 441 507 38,000  Level FlightAware ADS-B (KDMA)
07:48PM 29.5780 -108.8712 293° West  Level FlightAware Approximate
07:48PM 30.3360 -113.0774 305° West 441 507 38,000  Level FlightAware ADS-B (KDMA)
08:13PM 32.0655 -116.0838 315° West 447 514 38,000  Level FlightAware ADS-B (KCRQ)
08:16PM 32.2291 -116.3809 319° Northwest 452 520 38,000  Level FlightAware ADS-B (KCRQ)
08:16PM 32.2822 -116.4780 303° West 454 522 38,000  Level FlightAware ADS-B (KCRQ)
08:17PM 32.3158 -116.5393 303° West 454 522 38,000  Level FlightAware ADS-B (KCRQ)
08:18PM 32.3942 -116.6829 303° West 454 522 38,000  Level FlightAware ADS-B (KCRQ)
08:19PM 32.4369 -116.7613 303° West 453 521 38,000  Level FlightAware ADS-B (KCRQ)
08:19PM 32.4825 -116.8456 303° West 453 521 38,000  Level FlightAware ADS-B (KCRQ)
08:20PM 32.5004 -116.8787 303° West 453 521 38,000  Level FlightAware ADS-B (KCRQ)
08:22PM 32.7202 -117.2011 311° West 451 519 38,000  Level FlightAware ADS-B (KCRQ)
08:23PM 32.7486 -117.1248 311° West  Level Estimated
08:23PM 32.7727 -117.2741 311° West 451 519 38,000  Level FlightAware ADS-B (KCRQ)
08:24PM 32.8269 -117.3494 311° West 451 519 38,000  Level FlightAware ADS-B (KCRQ)
08:24PM 32.8851 -117.4304 311° West 451 519 38,000  Level FlightAware ADS-B (KCRQ)
08:25PM 32.9348 -117.4999 310° West 451 519 38,000  Level FlightAware ADS-B (KCRQ)
08:26PM 32.9839 -117.5688 310° West 450 518 38,000  Level FlightAware ADS-B (KCRQ)
08:26PM 33.0401 -117.6475 310° West 450 518 38,000  Level FlightAware ADS-B (KFUL)
08:27PM 33.0727 -117.6932 310° West 450 518 38,000  Level FlightAware ADS-B (KFUL)
08:28PM 33.1601 -117.8163 310° West 450 518 38,000  Level FlightAware ADS-B (KFUL)
08:28PM 33.2066 -117.8820 310° West 450 518 38,000  Level FlightAware ADS-B (KFUL)
08:29PM 33.2609 -117.9587 310° West 449 517 38,000  Level FlightAware ADS-B (KFUL)
08:30PM 33.3251 -118.0496 310° West 449 517 38,000  Level FlightAware ADS-B (KFUL)
08:31PM 33.3831 -118.1321 310° West 449 517 38,000  Level FlightAware ADS-B (KFUL)
08:31PM 33.4305 -118.1997 310° West 448 516 38,000  Level FlightAware ADS-B (KFUL)
08:32PM 33.4692 -118.2548 310° West 447 514 38,000  Level FlightAware ADS-B (KCRQ)
08:32PM 33.5159 -118.3215 310° West 447 514 38,000  Level FlightAware ADS-B (KFUL)
08:33PM 33.5556 -118.3784 310° West 447 514 38,000  Level FlightAware ADS-B (KFUL)
08:33PM 33.6018 -118.4446 310° West 447 514 38,000  Level FlightAware ADS-B (KCRQ)
08:34PM 33.6549 -118.5208 310° West 447 514 38,000  Level FlightAware ADS-B (KCRQ)
08:35PM 33.7065 -118.5950 310° West 447 514 38,000  Level FlightAware ADS-B (KCRQ)
08:35PM 33.7606 -118.6729 310° West 447 514 38,000  Level FlightAware ADS-B (KCRQ)
08:36PM 33.7710 -118.6878 310° West 448 516 38,000  Level FlightAware ADS-B (KFUL)
08:37PM 33.8522 -118.8055 310° West 448 516 38,000  Level FlightAware ADS-B (KFUL)
08:37PM 33.9201 -118.9041 310° West 449 517 38,000  Level FlightAware ADS-B (KFUL)
08:38PM 33.9900 -119.0056 310° West 449 517 38,000  Level FlightAware ADS-B (KFUL)
08:39PM 34.0502 -119.0934 310° West 449 517 38,000  Level FlightAware ADS-B (KFUL)
08:40PM 34.0926 -119.1555 310° West 449 517 38,000  Level FlightAware ADS-B (KFUL)
08:40PM 34.1538 -119.2452 310° West 447 514 38,000  Level FlightAware ADS-B (KFUL)
08:41PM 34.2106 -119.3282 310° West 446 513 38,000  Level FlightAware ADS-B (KFUL)
08:42PM 34.2609 -119.4027 309° West 444 511 38,000  Level FlightAware ADS-B (KFUL)
08:43PM 34.3208 -119.4911 309° West 443 510 38,000  Level FlightAware ADS-B (KFUL)
08:43PM 34.3794 -119.5776 309° West 441 507 38,000  Level FlightAware ADS-B (KFUL)
08:44PM 34.4211 -119.6393 309° West 441 507 38,000  Level FlightAware ADS-B (KFUL)
08:45PM 34.4886 -119.7398 309° West 439 505 38,000  Level FlightAware ADS-B (KFUL)
08:45PM 34.5444 -119.8090 314° West 439 505 38,000  Level FlightAware ADS-B (KFUL)
08:46PM 34.6349 -119.9076 318° Northwest 438 504 38,000  Level FlightAware ADS-B (KFUL)
08:47PM 34.7236 -120.0047 318° Northwest 436 502 38,000  Level FlightAware ADS-B (KFUL)
08:48PM 34.7726 -120.0585 318° Northwest 441 507 38,000  Level FlightAware ADS-B (KFUL)
08:48PM 34.8204 -120.1109 318° Northwest 446 513 38,000  Level FlightAware ADS-B (KFUL)
08:49PM 34.8693 -120.1647 318° Northwest 447 514 38,000  Level FlightAware ADS-B (KFUL)
08:49PM 34.9199 -120.2204 318° Northwest 447 514 38,000  Level FlightAware ADS-B (KFUL)
08:50PM 34.9685 -120.2739 318° Northwest 448 516 38,000  Level FlightAware ADS-B (KFUL)
08:51PM 35.0094 -120.3191 318° Northwest 449 517 38,000  Level FlightAware ADS-B (KFUL)
08:51PM 35.0634 -120.3788 318° Northwest 450 518 38,000  Level FlightAware ADS-B (KFUL)
08:52PM 35.1077 -120.4278 318° Northwest 450 518 38,000  Level FlightAware ADS-B (KFUL)
08:52PM 35.1751 -120.5029 318° Northwest 450 518 38,000  Level FlightAware ADS-B (KFUL)
08:53PM 35.2511 -120.5874 318° Northwest 443 510 38,000  Level FlightAware ADS-B (KFUL)
08:54PM 35.2973 -120.6389 318° Northwest 441 507 38,000  Level FlightAware ADS-B (KFUL)
08:57PM 35.6396 -120.9590 323° Northwest 439 505 38,000 -120 Level FlightAware ADS-B
09:00PM 35.8914 -121.1850 324° Northwest 445 512 37,300 -420 Descending FlightAware ADS-B
09:00PM 35.9420 -121.2310 324° Northwest 451 519 36,800 -2,280 Descending FlightAware ADS-B
09:02PM 36.0800 -121.3560 324° Northwest 457 526 33,100 -2,640 Descending FlightAware ADS-B
09:02PM 36.1482 -121.4170 324° Northwest 451 519 31,500 -2,160 Descending FlightAware ADS-B
09:03PM 36.2364 -121.4956 324° Northwest 445 512 29,400 -2,160 Descending Oakland Center
09:04PM 36.3311 -121.5828 323° Northwest 427 491 27,100 -2,160 Descending Oakland Center
09:10PM 36.8332 -121.9880 323° Northwest 349 402 15,400 -2,160 Descending FlightAware ADS-B
09:10PM 36.8805 -122.0000 349° North 344 396 14,400 -1,980 Descending FlightAware ADS-B
09:11PM 36.9279 -122.0120 349° North 340 391 13,400 -1,980 Descending FlightAware ADS-B
09:12PM 36.9966 -122.0300 348° North 337 388 11,900 -1,860 Descending FlightAware ADS-B
09:12PM 37.0426 -122.0430 347° North 328 377 11,100 -1,620 Descending FlightAware ADS-B
09:13PM 37.0879 -122.0540 349° North 322 371 10,300 -1,080 Descending FlightAware ADS-B
09:13PM 37.1322 -122.0660 348° North 297 342 10,000 -540 Descending FlightAware ADS-B
09:13PM 37.1540 -122.0720 348° North 290 334 9,900 -600 Descending FlightAware ADS-B
09:14PM 37.1741 -122.0770 349° North 290 334 9,700 -780 Descending FlightAware ADS-B
09:14PM 37.1941 -122.0820 349° North 287 330 9,500 -1,380 Descending FlightAware ADS-B
09:14PM 37.2139 -122.0880 346° North 290 334 9,000 -1,920 Descending FlightAware ADS-B
09:14PM 37.2360 -122.0930 350° North 292 336 8,500 -1,680 Descending FlightAware ADS-B
09:15PM 37.2572 -122.0990 347° North 293 337 8,100 -1,380 Descending FlightAware ADS-B
09:15PM 37.2775 -122.1040 349° North 290 334 7,800 -1,200 Descending FlightAware ADS-B
09:15PM 37.2973 -122.1100 346° North 285 328 7,500 -1,020 Descending FlightAware ADS-B
09:15PM 37.3173 -122.1150 349° North 277 319 7,300 -1,020 Descending FlightAware ADS-B
09:16PM 37.3344 -122.1200 347° North 275 316 7,000 -1,260 Descending FlightAware ADS-B
09:16PM 37.3475 -122.1230 350° North 273 314 6,800 -1,440 Descending FlightAware ADS-B
09:16PM 37.3665 -122.1280 348° North 272 313 6,400 -1,440 Descending FlightAware ADS-B
09:16PM 37.3835 -122.1320 349° North 273 314 6,100 -1,440 Descending FlightAware ADS-B
09:17PM 37.3977 -122.1360 347° North 274 315 5,800 -1,440 Descending FlightAware ADS-B
09:17PM 37.4164 -122.1410 348° North 270 311 5,500 -1,080 Descending FlightAware ADS-B
09:17PM 37.4334 -122.1460 347° North 262 302 5,300 -840 Descending FlightAware ADS-B
09:17PM 37.4514 -122.1500 350° North 254 292 5,100 -780 Descending FlightAware ADS-B
09:18PM 37.4684 -122.1550 347° North 244 281 4,900 -780 Descending FlightAware ADS-B
09:18PM 37.4851 -122.1600 347° North 232 267 4,700 -1,200 Descending FlightAware ADS-B
09:18PM 37.5003 -122.1650 345° North 224 258 4,300 -1,800 Descending FlightAware ADS-B
09:18PM 37.5128 -122.1690 346° North 223 257 3,900 -2,160 Descending FlightAware ADS-B
09:18PM 37.5172 -122.1710 340° North 224 258 3,700 -2,400 Descending FlightAware ADS-B
09:18PM 37.5220 -122.1740 334° Northwest 225 259 3,500 -2,700 Descending FlightAware ADS-B
09:18PM 37.5252 -122.1770 323° Northwest 225 259 3,300 -2,580 Descending FlightAware ADS-B
09:19PM 37.5281 -122.1790 331° Northwest 225 259 3,200 -1,740 Descending FlightAware ADS-B
09:19PM 37.5317 -122.1820 327° Northwest 223 257 3,100 -1,020 Descending FlightAware ADS-B
09:19PM 37.5375 -122.1880 321° Northwest 219 252 3,000 -1,440 Descending FlightAware ADS-B
09:19PM 37.5413 -122.1930 314° West 215 247 2,800 -1,500 Descending FlightAware ADS-B
09:19PM 37.5434 -122.1960 311° West 213 245 2,800 -780 Level FlightAware ADS-B
09:19PM 37.5461 -122.2010 304° West 208 239 2,700 -1,500 Descending FlightAware ADS-B
09:19PM 37.5477 -122.2040 304° West 206 237 2,600 -1,740 Descending FlightAware ADS-B
09:19PM 37.5491 -122.2080 294° West 204 235 2,500 -1,140 Descending FlightAware ADS-B
09:19PM 37.5524 -122.2160 297° West 202 232 2,400 -1,320 Descending FlightAware ADS-B
09:19PM 37.5568 -122.2280 295° West 198 228 2,100 -1,380 Descending FlightAware ADS-B
09:20PM 37.5632 -122.2440 297° West 191 220 1,800 -900 Descending FlightAware ADS-B
09:20PM 37.5680 -122.2560 297° West 189 217 1,700 -900 Descending FlightAware ADS-B
09:20PM 37.5744 -122.2710 298° West 187 215 1,400 -1,020 Descending FlightAware ADS-B
09:20PM 37.5806 -122.2850 299° West 177 204 1,200 -780 Descending FlightAware ADS-B
09:21PM 37.5839 -122.2930 298° West 168 193 1,100 -900 Descending FlightAware ADS-B
09:21PM 37.5899 -122.3070 298° West 156 180 800 -1,080 Descending FlightAware ADS-B
09:21PM 37.5958 -122.3210 298° West 156 180 500 -960 Descending FlightAware ADS-B
09:21PM 37.6009 -122.3330 298° West 157 181 300 -960 Descending FlightAware ADS-B
09:22PM 37.6048 -122.3420 299° West 156 180 100 -1,140 Descending FlightAware ADS-B
09:29PM 37.6167 -122.3667 322° Northwest  Level FlightAware Approximate
09:30PM 37.6191 -122.3752 322° Northwest  Level Estimated
09:31PM 37.6167 -122.3667 322° Northwest  Level FlightAware Approximate